Terminal Aerodrome Forecast
Issued by NWS Huntsville, AL

Home | Current Version | Previous Version | Text Only | Print | Product List | Glossary On
Versions: 1 2 3 4 5 6 7 8 9 10 11 12 13 14 15 16 17 18 19 20 21 22 23 24 25 26 27 28 29 30 31
000
FTUS44 KHUN 272335
TAFHSV
TAF
KHSV 272335Z 2800/2824 14010KT P6SM BKN020
     FM280500 15010KT 5SM BR OVC015
     FM281100 15009KT P6SM OVC009
     FM281700 18014KT 5SM -SHRA BKN015 OVC100
     FM282200 18012KT P6SM OVC015=

USA.gov is the U.S. government's official web portal to all federal, state and local government web resources and services.